createdAt,value
2018-09-23T00:00:07.965Z,15.70
2018-09-23T00:02:37.363Z,12.67
2018-09-23T00:05:07.236Z,17.73
2018-09-23T00:07:37.059Z,13.47
2018-09-23T00:10:06.755Z,12.53
2018-09-23T00:12:36.157Z,14.73
2018-09-23T00:15:05.846Z,16.77
2018-09-23T00:17:35.186Z,14.63
2018-09-23T00:20:04.927Z,18.73
2018-09-23T00:22:34.475Z,18.90
2018-09-23T00:25:03.785Z,19.37
2018-09-23T00:27:33.292Z,15.33
2018-09-23T00:30:03.207Z,21.03
2018-09-23T00:32:32.636Z,15.53
2018-09-23T00:35:02.042Z,18.23
2018-09-23T00:37:32.026Z,16.00
2018-09-23T00:40:01.404Z,16.80
2018-09-23T00:42:30.862Z,17.47
2018-09-23T00:45:00.722Z,21.60
2018-09-23T00:47:30.083Z,16.60
2018-09-23T00:49:59.480Z,14.63
2018-09-23T00:52:29.297Z,15.77
2018-09-23T00:54:58.901Z,19.53
2018-09-23T00:57:28.306Z,21.80
2018-09-23T00:59:58.237Z,20.23
2018-09-23T01:02:27.858Z,17.10
2018-09-23T01:04:57.271Z,18.63
2018-09-23T01:07:27.255Z,16.10
2018-09-23T01:09:56.880Z,18.80
2018-09-23T01:12:26.416Z,17.00
2018-09-23T01:14:56.037Z,14.70
2018-09-23T01:17:25.534Z,14.77
2018-09-23T01:19:54.966Z,15.70
2018-09-23T01:22:24.242Z,17.20
2018-09-23T01:24:54.187Z,16.10
2018-09-23T01:27:23.723Z,18.80
2018-09-23T01:29:53.578Z,18.77
2018-09-23T01:32:23.205Z,18.90
2018-09-23T01:34:53.134Z,15.17
2018-09-23T01:37:22.672Z,21.70
2018-09-23T01:39:52.033Z,12.80
2018-09-23T01:42:21.482Z,19.13
2018-09-23T01:44:51.164Z,16.97
2018-09-23T01:47:20.861Z,21.77
2018-09-23T01:49:50.798Z,16.97
2018-09-23T01:52:20.243Z,19.70
2018-09-23T01:54:49.473Z,19.70
2018-09-23T01:57:18.711Z,19.87
2018-09-23T01:59:48.454Z,20.67
2018-09-23T02:02:18.527Z,25.50
2018-09-23T02:04:48.433Z,20.60
2018-09-23T02:07:18.653Z,21.70
2018-09-23T02:09:48.177Z,15.17
2018-09-23T02:12:17.769Z,16.90
2018-09-23T02:14:47.655Z,20.67
2018-09-23T02:17:17.069Z,22.17
2018-09-23T02:19:46.488Z,20.10
2018-09-23T02:22:16.009Z,18.10
2018-09-23T02:24:45.421Z,11.43
2018-09-23T02:27:15.386Z,14.50
2018-09-23T02:29:45.188Z,26.00
2018-09-23T02:32:14.530Z,19.07
2018-09-23T02:34:43.850Z,19.07
2018-09-23T02:37:13.369Z,17.93
2018-09-23T02:39:43.050Z,18.63
2018-09-23T02:42:12.724Z,16.93
2018-09-23T02:44:42.527Z,17.80
2018-09-23T02:47:12.299Z,21.13
2018-09-23T02:49:42.275Z,22.30
2018-09-23T02:52:12.180Z,18.23
2018-09-23T02:54:41.841Z,16.10
2018-09-23T02:57:11.930Z,15.80
2018-09-23T02:59:41.611Z,21.23
2018-09-23T03:02:11.481Z,18.37
2018-09-23T03:04:40.951Z,27.43
2018-09-23T03:07:10.461Z,23.57
2018-09-23T03:09:40.301Z,19.10
2018-09-23T03:12:09.691Z,20.47
2018-09-23T03:14:39.135Z,19.33
2018-09-23T03:17:08.719Z,16.00
2018-09-23T03:19:38.238Z,24.63
2018-09-23T03:22:07.714Z,20.47
2018-09-23T03:24:36.972Z,23.70
2018-09-23T03:27:06.456Z,25.53
2018-09-23T03:29:36.391Z,22.00
2018-09-23T03:32:05.829Z,20.63
2018-09-23T03:34:35.417Z,22.60
2018-09-23T03:37:05.013Z,18.87
2018-09-23T03:39:34.396Z,20.90
2018-09-23T03:42:03.905Z,14.03
2018-09-23T03:44:33.595Z,18.27
2018-09-23T03:47:03.241Z,22.80
2018-09-23T03:49:32.622Z,17.27
2018-09-23T03:52:02.929Z,18.10
2018-09-23T03:54:32.231Z,24.20
2018-09-23T03:57:01.566Z,17.67
2018-09-23T03:59:31.272Z,17.83
2018-09-23T04:02:00.801Z,18.50
2018-09-23T04:04:30.355Z,28.33
2018-09-23T04:07:00.038Z,18.47
2018-09-23T04:09:29.517Z,17.37
2018-09-23T04:11:58.854Z,21.77
2018-09-23T04:14:28.417Z,20.30
2018-09-23T04:16:57.720Z,19.97
2018-09-23T04:19:27.110Z,14.60
2018-09-23T04:21:56.695Z,21.80
2018-09-23T04:24:26.092Z,21.97
2018-09-23T04:26:55.595Z,13.90
2018-09-23T04:29:25.332Z,21.73
2018-09-23T04:31:55.072Z,16.00
2018-09-23T04:34:24.799Z,20.37
2018-09-23T04:36:54.394Z,15.23
2018-09-23T04:39:24.235Z,15.97
2018-09-23T04:41:53.458Z,17.70
2018-09-23T04:44:23.316Z,18.83
2018-09-23T04:46:53.061Z,11.70
2018-09-23T04:49:22.662Z,13.67
2018-09-23T04:51:52.209Z,21.10
2018-09-23T04:54:21.671Z,13.00
2018-09-23T04:56:51.121Z,14.93
2018-09-23T04:59:20.894Z,22.77
2018-09-23T05:01:50.234Z,14.27
2018-09-23T05:04:19.556Z,12.10
2018-09-23T05:06:49.365Z,14.83
2018-09-23T05:09:19.018Z,14.47
2018-09-23T05:11:48.484Z,17.77
2018-09-23T05:14:18.176Z,16.37
2018-09-23T05:16:48.227Z,12.47
2018-09-23T05:19:17.708Z,14.97
2018-09-23T05:21:47.337Z,17.27
2018-09-23T05:24:16.929Z,11.50
2018-09-23T05:26:46.446Z,17.43
2018-09-23T05:29:16.437Z,14.53
2018-09-23T05:31:46.069Z,13.97
2018-09-23T05:34:15.488Z,14.87
2018-09-23T05:36:46.098Z,9.40
2018-09-23T05:39:15.495Z,13.03
2018-09-23T05:41:45.636Z,12.63
2018-09-23T05:44:15.649Z,11.67
2018-09-23T05:46:44.930Z,13.73
2018-09-23T05:49:14.688Z,15.07
2018-09-23T05:51:44.264Z,11.07
2018-09-23T05:54:13.839Z,9.30
2018-09-23T05:56:43.068Z,8.77
2018-09-23T05:59:13.379Z,11.43
2018-09-23T06:01:43.259Z,13.67
2018-09-23T06:04:13.898Z,12.93
2018-09-23T06:06:44.759Z,9.33
2018-09-23T06:09:14.250Z,11.87
2018-09-23T06:11:43.975Z,9.40
2018-09-23T06:14:13.469Z,13.07
2018-09-23T06:16:42.912Z,11.73
2018-09-23T06:19:12.449Z,11.67
2018-09-23T06:21:41.864Z,8.03
2018-09-23T06:24:11.371Z,9.23
2018-09-23T06:26:40.914Z,14.07
2018-09-23T06:29:10.213Z,12.53
2018-09-23T06:31:39.712Z,14.03
2018-09-23T06:34:09.597Z,9.83
2018-09-23T06:36:38.951Z,9.53
2018-09-23T06:39:09.181Z,11.47
2018-09-23T06:41:39.714Z,9.37
2018-09-23T06:44:09.320Z,9.47
2018-09-23T06:46:39.299Z,8.47
2018-09-23T06:49:08.892Z,8.93
2018-09-23T06:51:39.418Z,7.70
2018-09-23T06:54:08.908Z,9.90
2018-09-23T06:56:39.045Z,10.20
2018-09-23T06:59:08.755Z,9.83
2018-09-23T07:01:38.199Z,8.50
2018-09-23T07:04:08.327Z,11.60
2018-09-23T07:06:38.570Z,14.40
2018-09-23T07:09:08.422Z,11.17
2018-09-23T07:11:37.902Z,10.57
2018-09-23T07:14:07.358Z,15.47
2018-09-23T07:16:37.234Z,8.07
2018-09-23T07:19:06.520Z,9.40
2018-09-23T07:21:35.947Z,10.63
2018-09-23T07:24:05.716Z,12.80
2018-09-23T07:26:35.191Z,10.33
2018-09-23T07:29:05.158Z,13.53
2018-09-23T07:31:34.758Z,10.20
2018-09-23T07:34:04.138Z,6.37
2018-09-23T07:36:33.559Z,9.90
2018-09-23T07:39:03.174Z,10.63
2018-09-23T07:41:32.637Z,9.40
2018-09-23T07:44:01.855Z,8.27
2018-09-23T07:46:31.339Z,11.33
2018-09-23T07:49:00.874Z,10.83
2018-09-23T07:51:30.531Z,6.70
2018-09-23T07:54:00.221Z,8.17
2018-09-23T07:56:29.760Z,11.27
2018-09-23T07:58:59.386Z,7.73
2018-09-23T08:01:28.964Z,9.27
2018-09-23T08:03:58.588Z,11.00
2018-09-23T08:06:28.001Z,9.83
2018-09-23T08:08:57.729Z,8.57
2018-09-23T08:11:27.427Z,8.37
2018-09-23T08:13:57.118Z,6.67
2018-09-23T08:16:26.787Z,7.07
2018-09-23T08:18:56.502Z,4.13
2018-09-23T08:21:25.932Z,10.73
2018-09-23T08:23:55.995Z,11.50
2018-09-23T08:26:25.805Z,11.27
2018-09-23T08:28:55.395Z,6.00
2018-09-23T08:31:25.231Z,8.40
2018-09-23T08:33:55.341Z,5.20
2018-09-23T08:36:24.840Z,5.33
2018-09-23T08:38:54.671Z,6.97
2018-09-23T08:41:24.053Z,10.97
2018-09-23T08:43:53.849Z,9.53
2018-09-23T08:46:24.229Z,11.17
2018-09-23T08:48:54.322Z,6.70
2018-09-23T08:51:24.495Z,10.20
2018-09-23T08:53:54.027Z,10.50
2018-09-23T08:56:23.738Z,8.07
2018-09-23T08:58:53.174Z,12.03
2018-09-23T09:01:23.030Z,8.60
2018-09-23T09:03:52.561Z,5.80
2018-09-23T09:06:22.719Z,7.63
2018-09-23T09:08:52.809Z,10.47
2018-09-23T09:11:22.767Z,8.40
2018-09-23T09:13:52.450Z,8.80
2018-09-23T09:16:22.056Z,7.83
2018-09-23T09:18:52.056Z,3.47
2018-09-23T09:21:21.864Z,10.07
2018-09-23T09:23:51.594Z,10.50
2018-09-23T09:26:21.114Z,6.67
2018-09-23T09:28:50.678Z,5.40
2018-09-23T09:31:20.358Z,8.77
2018-09-23T09:33:50.337Z,6.03
2018-09-23T09:36:19.881Z,4.60
2018-09-23T09:38:49.580Z,4.97
2018-09-23T09:41:19.375Z,10.50
2018-09-23T09:43:49.160Z,11.23
2018-09-23T09:46:20.160Z,9.07
2018-09-23T09:48:49.681Z,11.43
2018-09-23T09:51:19.781Z,13.70
2018-09-23T09:53:49.318Z,7.93
2018-09-23T09:56:18.799Z,8.00
2018-09-23T09:58:48.627Z,7.87
2018-09-23T10:01:18.885Z,6.77
2018-09-23T10:03:48.618Z,6.03
2018-09-23T10:06:18.344Z,9.00
2018-09-23T10:08:47.821Z,8.77
2018-09-23T10:11:17.611Z,10.20
2018-09-23T10:13:47.153Z,8.80
2018-09-23T10:16:16.707Z,7.50
2018-09-23T10:18:46.488Z,7.10
2018-09-23T10:21:16.684Z,8.63
2018-09-23T10:23:46.177Z,6.90
2018-09-23T10:26:16.359Z,11.63
2018-09-23T10:28:45.936Z,6.90
2018-09-23T10:31:15.797Z,5.07
2018-09-23T10:33:45.226Z,6.70
2018-09-23T10:36:15.022Z,5.17
2018-09-23T10:38:44.695Z,7.50
2018-09-23T10:41:14.051Z,5.57
2018-09-23T10:43:43.990Z,7.27
2018-09-23T10:46:13.598Z,5.50
2018-09-23T10:48:42.874Z,7.80
2018-09-23T10:51:12.533Z,3.27
2018-09-23T10:53:41.890Z,5.53
2018-09-23T10:56:11.409Z,7.53
2018-09-23T10:58:41.031Z,6.53
2018-09-23T11:01:10.397Z,4.63
2018-09-23T11:03:39.658Z,6.07
2018-09-23T11:06:09.355Z,5.87
2018-09-23T11:08:38.825Z,6.23
2018-09-23T11:11:08.815Z,3.27
2018-09-23T11:13:38.416Z,6.40
2018-09-23T11:16:07.855Z,9.63
2018-09-23T11:18:37.338Z,6.07
2018-09-23T11:21:07.679Z,7.60
2018-09-23T11:23:36.932Z,4.10
2018-09-23T11:26:06.500Z,9.03
2018-09-23T11:28:36.024Z,5.97
2018-09-23T11:31:05.433Z,5.83
2018-09-23T11:33:34.862Z,5.57
2018-09-23T11:36:04.661Z,4.17
2018-09-23T11:38:34.023Z,5.43
2018-09-23T11:41:04.004Z,9.47
2018-09-23T11:43:33.846Z,5.30
2018-09-23T11:46:03.689Z,4.00
2018-09-23T11:48:33.058Z,4.53
2018-09-23T11:51:02.544Z,6.07
2018-09-23T11:53:31.858Z,6.97
2018-09-23T11:56:01.393Z,4.83
2018-09-23T11:58:31.273Z,3.83
2018-09-23T12:01:00.629Z,4.93
2018-09-23T12:03:30.206Z,2.87
2018-09-23T12:05:59.888Z,3.97
2018-09-23T12:08:29.442Z,7.50
2018-09-23T12:10:59.247Z,6.70
2018-09-23T12:13:28.979Z,4.87
2018-09-23T12:15:58.453Z,5.43
2018-09-23T12:18:28.335Z,3.30
2018-09-23T12:20:58.022Z,5.03
2018-09-23T12:23:27.309Z,5.37
2018-09-23T12:25:56.746Z,4.40
2018-09-23T12:28:26.203Z,6.73
2018-09-23T12:30:55.697Z,5.73
2018-09-23T12:33:25.232Z,4.17
2018-09-23T12:35:59.145Z,7.57
2018-09-23T12:38:28.626Z,10.03
2018-09-23T12:40:58.107Z,4.13
2018-09-23T12:43:27.820Z,5.53
2018-09-23T12:45:57.687Z,3.60
2018-09-23T12:48:27.345Z,4.83
2018-09-23T12:50:57.093Z,3.97
2018-09-23T12:53:26.984Z,6.50
2018-09-23T12:55:56.607Z,8.30
2018-09-23T12:58:26.223Z,5.50
2018-09-23T13:00:55.572Z,5.23
2018-09-23T13:03:25.530Z,4.53
2018-09-23T13:05:55.317Z,6.03
2018-09-23T13:08:24.983Z,6.83
2018-09-23T13:10:54.756Z,6.80
2018-09-23T13:13:24.390Z,8.80
2018-09-23T13:15:54.263Z,5.07
2018-09-23T13:18:23.843Z,5.87
2018-09-23T13:20:53.630Z,3.40
2018-09-23T13:23:23.529Z,5.37
2018-09-23T13:25:53.206Z,9.30
2018-09-23T13:28:23.035Z,3.23
2018-09-23T13:30:52.623Z,3.33
2018-09-23T13:33:23.397Z,5.33
2018-09-23T13:35:54.168Z,7.13
2018-09-23T13:38:23.790Z,9.30
2018-09-23T13:40:53.392Z,3.43
2018-09-23T13:43:23.655Z,7.37
2018-09-23T13:45:53.686Z,3.60
2018-09-23T13:48:24.894Z,5.60
2018-09-23T13:50:55.101Z,4.70
2018-09-23T13:53:25.111Z,2.10
2018-09-23T13:55:54.922Z,3.57
2018-09-23T13:58:24.706Z,5.97
2018-09-23T14:00:54.584Z,4.80
2018-09-23T14:03:24.469Z,6.00
2018-09-23T14:05:54.599Z,6.07
2018-09-23T14:08:24.713Z,3.60
2018-09-23T14:10:54.489Z,3.10
2018-09-23T14:13:24.751Z,4.40
2018-09-23T14:15:54.455Z,2.40
2018-09-23T14:18:25.688Z,2.37
2018-09-23T14:20:55.395Z,7.00
2018-09-23T14:23:25.426Z,3.17
2018-09-23T14:25:55.508Z,2.40
2018-09-23T14:28:25.679Z,3.47
2018-09-23T14:30:55.204Z,3.03
2018-09-23T14:33:25.307Z,5.57
2018-09-23T14:35:55.211Z,2.50
2018-09-23T14:38:25.900Z,3.27
2018-09-23T14:40:55.774Z,3.83
2018-09-23T14:43:26.050Z,5.57
2018-09-23T14:45:55.926Z,5.53
2018-09-23T14:48:26.325Z,2.00
2018-09-23T14:50:56.432Z,3.07
2018-09-23T14:53:26.231Z,3.87
2018-09-23T14:55:56.133Z,6.30
2018-09-23T14:58:26.391Z,4.90
2018-09-23T15:00:55.879Z,7.73
2018-09-23T15:03:25.734Z,6.47
2018-09-23T15:05:55.242Z,4.47
2018-09-23T15:08:25.119Z,2.13
2018-09-23T15:10:55.447Z,5.40
2018-09-23T15:13:26.087Z,3.27
2018-09-23T15:15:56.044Z,1.70
2018-09-23T15:18:29.222Z,4.20
2018-09-23T15:20:58.913Z,4.03
2018-09-23T15:23:28.364Z,8.03
2018-09-23T15:25:58.029Z,7.33
2018-09-23T15:28:27.583Z,2.60
2018-09-23T15:30:57.399Z,2.30
2018-09-23T15:33:27.528Z,3.37
2018-09-23T15:35:57.187Z,3.17
2018-09-23T15:38:26.980Z,3.07
2018-09-23T15:40:56.479Z,3.73
2018-09-23T15:43:26.696Z,1.87
2018-09-23T15:45:56.611Z,2.23
2018-09-23T15:48:26.451Z,2.27
2018-09-23T15:50:56.328Z,3.57
2018-09-23T15:53:26.020Z,4.70
2018-09-23T15:55:55.619Z,3.00
2018-09-23T15:58:25.498Z,4.23
2018-09-23T16:00:55.021Z,3.80
2018-09-23T16:03:25.032Z,2.53
2018-09-23T16:05:58.185Z,3.20
2018-09-23T16:08:27.993Z,2.23
2018-09-23T16:10:58.624Z,6.37
2018-09-23T16:13:28.502Z,2.20
2018-09-23T16:16:00.282Z,2.60
2018-09-23T16:18:30.832Z,2.23
2018-09-23T16:21:00.579Z,3.73
2018-09-23T16:23:30.375Z,4.27
2018-09-23T16:25:59.739Z,3.57
2018-09-23T16:28:29.275Z,5.00
2018-09-23T16:30:59.824Z,1.87
2018-09-23T16:33:29.474Z,9.53
2018-09-23T16:35:59.379Z,7.33
2018-09-23T16:38:30.235Z,5.33
2018-09-23T16:40:59.641Z,4.47
2018-09-23T16:43:29.348Z,7.40
2018-09-23T16:45:59.340Z,4.47
2018-09-23T16:48:28.770Z,4.80
2018-09-23T16:50:58.583Z,6.93
2018-09-23T16:53:28.702Z,4.13
2018-09-23T16:55:58.414Z,3.93
2018-09-23T16:58:28.698Z,1.80
2018-09-23T17:00:58.991Z,3.30
2018-09-23T17:03:28.538Z,3.40
2018-09-23T17:05:58.085Z,4.63
2018-09-23T17:08:28.277Z,4.33
2018-09-23T17:10:58.726Z,5.57
2018-09-23T17:13:28.531Z,8.43
2018-09-23T17:15:58.414Z,2.07
2018-09-23T17:18:28.187Z,4.30
2018-09-23T17:20:57.635Z,2.37
2018-09-23T17:23:27.398Z,4.30
2018-09-23T17:25:56.998Z,3.37
2018-09-23T17:28:27.287Z,6.00
2018-09-23T17:30:56.702Z,7.63
2018-09-23T17:33:26.313Z,4.83
2018-09-23T17:35:55.880Z,3.53
2018-09-23T17:38:26.957Z,4.97
2018-09-23T17:40:57.092Z,7.27
2018-09-23T17:43:27.868Z,2.23
2018-09-23T17:45:57.849Z,4.33
2018-09-23T17:48:28.076Z,2.33
2018-09-23T17:50:57.792Z,5.00
2018-09-23T17:53:27.700Z,10.60
2018-09-23T17:55:57.725Z,6.97
2018-09-23T17:58:27.502Z,3.70
2018-09-23T18:00:57.705Z,4.03
2018-09-23T18:03:27.432Z,4.00
2018-09-23T18:05:57.259Z,3.10
2018-09-23T18:08:27.192Z,3.77
2018-09-23T18:10:56.481Z,4.93
2018-09-23T18:13:25.766Z,2.43
2018-09-23T18:15:55.913Z,3.97
2018-09-23T18:18:25.766Z,7.07
2018-09-23T18:20:55.557Z,5.30
2018-09-23T18:23:25.425Z,6.17
2018-09-23T18:25:55.244Z,5.43
2018-09-23T18:28:24.731Z,7.20
2018-09-23T18:30:54.683Z,6.17
2018-09-23T18:33:24.311Z,7.03
2018-09-23T18:35:54.259Z,5.47
2018-09-23T18:38:24.349Z,6.40
2018-09-23T18:40:54.170Z,4.30
2018-09-23T18:43:24.192Z,5.27
2018-09-23T18:45:54.213Z,5.37
2018-09-23T18:48:23.935Z,3.47
2018-09-23T18:50:53.870Z,5.53
2018-09-23T18:53:24.886Z,3.90
2018-09-23T18:55:55.161Z,3.50
2018-09-23T18:58:25.108Z,4.40
2018-09-23T19:00:54.689Z,4.87
2018-09-23T19:03:24.332Z,3.53
2018-09-23T19:05:54.097Z,4.33
2018-09-23T19:08:24.646Z,7.60
2018-09-23T19:10:54.192Z,8.47
2018-09-23T19:13:28.773Z,6.77
2018-09-23T19:16:02.885Z,6.17
2018-09-23T19:18:32.542Z,3.20
2018-09-23T19:21:01.952Z,4.83
2018-09-23T19:23:32.323Z,4.37
2018-09-23T19:26:02.017Z,5.13
2018-09-23T19:28:31.475Z,3.57
2018-09-23T19:31:00.773Z,5.47
2018-09-23T19:33:30.789Z,4.57
2018-09-23T19:36:00.441Z,4.10
2018-09-23T19:38:30.109Z,3.87
2018-09-23T19:41:00.947Z,3.70
2018-09-23T19:43:30.634Z,4.30
2018-09-23T19:46:00.135Z,7.90
2018-09-23T19:48:29.939Z,10.87
2018-09-23T19:50:59.640Z,7.13
2018-09-23T19:53:29.311Z,10.30
2018-09-23T19:55:59.271Z,11.63
2018-09-23T19:58:29.025Z,12.10
2018-09-23T20:00:58.479Z,12.67
2018-09-23T20:03:28.120Z,7.70
2018-09-23T20:05:57.542Z,3.30
2018-09-23T20:08:27.185Z,4.40
2018-09-23T20:10:58.264Z,4.37
2018-09-23T20:13:27.774Z,4.37
2018-09-23T20:15:57.312Z,4.30
2018-09-23T20:18:26.923Z,5.67
2018-09-23T20:20:56.417Z,6.27
2018-09-23T20:23:26.020Z,3.50
2018-09-23T20:25:55.876Z,3.23
2018-09-23T20:28:25.602Z,5.10
2018-09-23T20:30:55.196Z,7.60
2018-09-23T20:33:24.878Z,3.20
2018-09-23T20:35:54.494Z,4.03
2018-09-23T20:38:24.904Z,2.93
2018-09-23T20:40:55.110Z,5.00
2018-09-23T20:43:25.165Z,4.90
2018-09-23T20:45:54.863Z,6.03
2018-09-23T20:48:25.813Z,4.87
2018-09-23T20:50:55.289Z,5.33
2018-09-23T20:53:25.006Z,1.20
2018-09-23T20:55:54.706Z,1.27
2018-09-23T20:58:24.429Z,1.03
2018-09-23T21:00:54.340Z,1.40
2018-09-23T21:03:25.117Z,0.90
2018-09-23T21:05:54.949Z,1.87
2018-09-23T21:08:24.511Z,0.60
2018-09-23T21:10:54.140Z,0.30
2018-09-23T21:13:24.131Z,0.80
2018-09-23T21:15:53.802Z,0.50
2018-09-23T21:18:23.225Z,0.70
2018-09-23T21:20:53.287Z,0.50
2018-09-23T21:23:22.999Z,0.90
2018-09-23T21:25:52.524Z,1.50
2018-09-23T21:28:22.455Z,1.33
2018-09-23T21:30:52.305Z,1.77
2018-09-23T21:33:22.430Z,0.83
2018-09-23T21:35:52.317Z,4.17
2018-09-23T21:38:22.249Z,1.07
2018-09-23T21:40:51.905Z,1.93
2018-09-23T21:43:21.786Z,0.87
2018-09-23T21:45:51.447Z,2.77
2018-09-23T21:48:21.327Z,2.23
2018-09-23T21:50:51.348Z,1.10
2018-09-23T21:53:20.897Z,2.60
2018-09-23T21:55:50.236Z,3.27
2018-09-23T21:58:19.688Z,2.13
2018-09-23T22:00:49.303Z,1.87
2018-09-23T22:03:18.713Z,2.03
2018-09-23T22:05:48.203Z,3.80
2018-09-23T22:08:17.777Z,11.23
2018-09-23T22:10:47.089Z,18.77
2018-09-23T22:13:16.783Z,30.80
2018-09-23T22:15:46.447Z,23.43
2018-09-23T22:18:15.597Z,11.83
2018-09-23T22:20:44.876Z,7.10
2018-09-23T22:23:14.197Z,5.93
2018-09-23T22:25:43.674Z,10.07
2018-09-23T22:28:13.201Z,5.30
2018-09-23T22:30:42.676Z,3.93
2018-09-23T22:33:12.139Z,5.17
2018-09-23T22:35:41.686Z,4.83
2018-09-23T22:38:11.123Z,5.07
2018-09-23T22:40:40.412Z,5.60
2018-09-23T22:43:10.162Z,8.80
2018-09-23T22:45:39.519Z,6.27
2018-09-23T22:48:08.918Z,4.70
2018-09-23T22:50:38.691Z,4.93
2018-09-23T22:53:08.228Z,4.87
2018-09-23T22:55:37.470Z,4.67
2018-09-23T22:58:07.073Z,12.17
2018-09-23T23:00:36.405Z,15.23
2018-09-23T23:03:05.795Z,10.73
2018-09-23T23:05:35.322Z,7.30
2018-09-23T23:08:04.853Z,11.87
2018-09-23T23:10:34.244Z,13.43
2018-09-23T23:13:03.627Z,5.00
2018-09-23T23:15:32.953Z,3.93
2018-09-23T23:18:02.474Z,7.27
2018-09-23T23:20:31.873Z,4.80
2018-09-23T23:23:01.141Z,2.30
2018-09-23T23:25:30.682Z,1.90
2018-09-23T23:28:00.376Z,2.67
2018-09-23T23:30:29.745Z,5.93
2018-09-23T23:32:59.113Z,3.83
2018-09-23T23:35:28.816Z,18.17
2018-09-23T23:37:58.218Z,11.83
2018-09-23T23:40:27.600Z,10.30
2018-09-23T23:42:57.336Z,5.33
2018-09-23T23:45:26.705Z,4.63
2018-09-23T23:47:56.002Z,4.63
2018-09-23T23:50:25.649Z,3.73
2018-09-23T23:52:55.285Z,4.63
2018-09-23T23:55:24.716Z,4.07
2018-09-23T23:57:54.602Z,4.40
